Time;durP1;ratioP1;P1;durP2;ratioP2;P2;SDS_P1;SDS_P2;PMS_P1;PMS_P2;Temp;Humidity;BMP_temperature;BMP_pressure;BME280_temperature;BME280_humidity;BME280_pressure;Samples;Min_cycle;Max_cycle;Signal;HPM_P1;HPM_P2
2023/10/21 00:00:36;;;;;;;0.50;0.50;;;;;12.70;93462.00;;;;5060971;28;20188;-62
2023/10/21 00:03:05;;;;;;;0.50;0.50;;;;;12.80;93465.00;;;;5060877;28;20208;-62
2023/10/21 00:05:32;;;;;;;0.60;0.60;;;;;12.80;93463.00;;;;5060429;28;20188;-62
2023/10/21 00:08:00;;;;;;;0.60;0.60;;;;;12.90;93462.00;;;;5061467;28;20191;-62
2023/10/21 00:10:28;;;;;;;0.60;0.60;;;;;12.90;93504.00;;;;5060878;28;20230;-62
2023/10/21 00:12:55;;;;;;;0.60;0.60;;;13.50;82.40;13.00;93473.00;;;;5042909;28;20315;-62
2023/10/21 00:15:23;;;;;;;0.60;0.60;;;13.60;81.70;13.00;93456.00;;;;5061085;28;20544;-62
2023/10/21 00:17:50;;;;;;;0.50;0.50;;;;;13.10;93471.00;;;;5059548;28;20207;-62
2023/10/21 00:20:19;;;;;;;0.60;0.60;;;;;13.10;93465.00;;;;5061576;28;20677;-62
2023/10/21 00:22:47;;;;;;;0.50;0.50;;;;;13.00;93469.00;;;;5061308;28;20212;-61
2023/10/21 00:25:14;;;;;;;0.50;0.50;;;;;13.10;93477.00;;;;5061649;28;20199;-62
2023/10/21 00:27:41;;;;;;;0.50;0.50;;;;;13.10;93495.00;;;;5061122;28;20290;-61
2023/10/21 00:30:11;;;;;;;0.50;0.50;;;;;13.10;93493.00;;;;5060708;28;20227;-61
2023/10/21 00:32:39;;;;;;;0.60;0.60;;;;;13.00;93486.00;;;;5061721;28;20208;-62
2023/10/21 00:35:07;;;;;;;0.60;0.60;;;;;13.10;93465.00;;;;5061185;28;20188;-61
2023/10/21 00:37:35;;;;;;;0.50;0.50;;;;;13.10;93480.00;;;;5043330;28;20204;-61
2023/10/21 00:40:04;;;;;;;0.50;0.50;;;;;13.10;93456.00;;;;5061152;28;20656;-61
2023/10/21 00:42:31;;;;;;;0.60;0.60;;;;;13.20;93480.00;;;;5061109;28;20682;-62
2023/10/21 00:44:59;;;;;;;0.50;0.50;;;;;13.30;93493.00;;;;5061008;28;20247;-62
2023/10/21 00:47:27;;;;;;;0.50;0.50;;;;;13.10;93544.00;;;;5061104;28;20196;-62
2023/10/21 00:49:56;;;;;;;0.50;0.50;;;;;13.20;93521.00;;;;5043196;28;20235;-62
2023/10/21 00:52:25;;;;;;;0.60;0.60;;;;;13.20;93510.00;;;;5060630;28;20683;-63
2023/10/21 00:54:57;;;;;;;0.70;0.70;;;;;13.10;93515.00;;;;5060480;28;20285;-62
2023/10/21 00:57:26;;;;;;;0.60;0.60;;;;;13.10;93515.00;;;;5060189;28;20187;-62
2023/10/21 00:59:54;;;;;;;0.53;0.53;;;;;13.00;93535.00;;;;5060312;28;20184;-62
2023/10/21 01:02:22;;;;;;;0.60;0.60;;;;;13.10;93551.00;;;;5061303;28;20300;-62
2023/10/21 01:04:49;;;;;;;0.60;0.60;;;;;13.00;93544.00;;;;5059794;28;20546;-62
2023/10/21 01:07:17;;;;;;;0.50;0.50;;;;;13.00;93544.00;;;;5059962;28;20608;-61
2023/10/21 01:09:44;;;;;;;0.60;0.60;;;;;13.00;93545.00;;;;5060946;28;20269;-62
2023/10/21 01:12:13;;;;;;;0.53;0.53;;;;;13.00;93547.00;;;;5060460;28;20216;-62
2023/10/21 01:14:41;;;;;;;0.60;0.60;;;;;13.00;93565.00;;;;5060158;28;20196;-61
2023/10/21 01:17:08;;;;;;;0.50;0.50;;;;;12.90;93566.00;;;;5042009;28;20281;-62
2023/10/21 01:19:36;;;;;;;0.50;0.50;;;;;13.10;93560.00;;;;5060225;28;20269;-62
2023/10/21 01:22:03;;;;;;;0.53;0.53;;;;;13.10;93580.00;;;;5060325;28;20212;-62
2023/10/21 01:24:32;;;;;;;0.60;0.60;;;;;13.10;93578.00;;;;5060432;28;20196;-62
2023/10/21 01:27:00;;;;;;;0.60;0.60;;;;;13.10;93578.00;;;;5059992;28;20250;-62
2023/10/21 01:29:27;;;;;;;0.50;0.50;;;;;13.00;93590.00;;;;5059759;28;20212;-63
2023/10/21 01:31:54;;;;;;;0.57;0.57;;;;;13.00;93582.00;;;;5059762;28;20334;-62
2023/10/21 01:34:22;;;;;;;0.70;0.70;;;;;13.00;93582.00;;;;5059696;28;20199;-62
2023/10/21 01:36:50;;;;;;;0.53;0.53;;;;;13.00;93578.00;;;;5042243;28;20211;-62
2023/10/21 01:39:18;;;;;;;0.57;0.57;;;;;13.00;93593.00;;;;5059625;28;20262;-62
2023/10/21 01:41:47;;;;;;;0.70;0.70;;;;;12.90;93595.00;;;;5043100;28;20335;-62
2023/10/21 01:44:15;;;;;;;0.50;0.50;;;;;13.00;93596.00;;;;5059444;28;20664;-62
2023/10/21 01:46:42;;;;;;;0.50;0.50;;;;;13.10;93612.00;;;;5059470;28;20192;-62
2023/10/21 01:49:09;;;;;;;0.50;0.50;;;;;13.10;93630.00;;;;5059257;28;20200;-62
2023/10/21 01:51:37;;;;;;;0.50;0.50;;;;;12.90;93629.00;;;;5059596;28;20207;-62
2023/10/21 01:54:05;;;;;;;0.50;0.50;;;;;13.00;93625.00;;;;5058702;28;20668;-61
2023/10/21 01:56:32;;;;;;;0.50;0.50;;;;;13.00;93623.00;;;;5059511;28;20188;-62
2023/10/21 01:59:01;;;;;;;0.47;0.47;;;;;13.00;93633.00;;;;5059483;28;20195;-61
2023/10/21 02:01:28;;;;;;;0.50;0.50;;;;;13.00;93636.00;;;;5058894;28;20666;-61
2023/10/21 02:03:56;;;;;;;0.60;0.60;;;;;12.90;93646.00;;;;5058659;28;20203;-62
2023/10/21 02:06:23;;;;;;;0.60;0.60;;;;;12.90;93657.00;;;;5058443;28;20675;-62
2023/10/21 02:08:51;;;;;;;0.60;0.60;;;;;12.90;93666.00;;;;5058761;28;20188;-62
2023/10/21 02:11:22;;;;;;;0.70;0.70;;;;;13.00;93670.00;;;;5041470;28;20582;-63
2023/10/21 02:13:49;;;;;;;0.50;0.50;;;;;13.10;93670.00;;;;5059078;28;20181;-62
2023/10/21 02:16:19;;;;;;;0.50;0.50;;;;;13.20;93678.00;;;;5058904;28;20678;-62
2023/10/21 02:18:46;;;;;;;0.60;0.60;;;;;13.20;93693.00;;;;5058450;28;20231;-62
2023/10/21 02:21:13;;;;;;;0.50;0.50;;;;;13.00;93692.00;;;;5058439;28;20219;-61
2023/10/21 02:23:41;;;;;;;0.60;0.60;;;;;13.10;93698.00;;;;5059148;28;20193;-61
2023/10/21 02:26:08;;;;;;;0.60;0.60;;;;;13.20;93712.00;;;;5060856;28;20207;-62
2023/10/21 02:28:36;;;;;;;0.50;0.50;;;;;13.20;93709.00;;;;5062683;28;20554;-61
2023/10/21 02:31:04;;;;;;;0.50;0.50;;;;;13.20;93709.00;;;;5045295;28;20218;-63
2023/10/21 02:33:33;;;;;;;0.50;0.50;;;;;13.10;93719.00;;;;5062889;28;20569;-62
2023/10/21 02:36:00;;;;;;;0.60;0.60;;;;;13.10;93728.00;;;;5062187;28;20196;-62
2023/10/21 02:38:28;;;;;;;0.60;0.60;;;;;13.20;93735.00;;;;5063595;28;20203;-62
2023/10/21 02:40:55;;;;;;;0.50;0.50;;;;;13.10;93738.00;;;;5062996;28;20279;-61
2023/10/21 02:43:23;;;;;;;0.70;0.70;;;;;13.10;93743.00;;;;5061610;28;20191;-62
2023/10/21 02:45:50;;;;;;;0.60;0.60;;;;;13.00;93749.00;;;;5059995;28;20287;-61
2023/10/21 02:48:17;;;;;;;0.50;0.50;;;;;13.00;93750.00;;;;5057601;28;20196;-61
2023/10/21 02:50:46;;;;;;;0.60;0.60;;;;;13.10;93763.00;;;;5057099;28;20306;-62
2023/10/21 02:53:14;;;;;;;0.47;0.47;;;;;13.00;93762.00;;;;5058294;28;20309;-62
2023/10/21 02:55:41;;;;;;;0.50;0.50;;;;;12.90;93760.00;;;;5057007;28;20193;-62
2023/10/21 02:58:09;;;;;;;0.60;0.60;;;;;12.90;93774.00;;;;5057350;28;20279;-62
2023/10/21 03:00:36;;;;;;;0.60;0.60;;;;;13.00;93775.00;;;;5061867;28;20192;-62
2023/10/21 03:03:04;;;;;;;0.50;0.50;;;;;12.90;93781.00;;;;5062306;28;20212;-62
2023/10/21 03:05:32;;;;;;;0.60;0.60;;;;;12.80;93776.00;;;;5061888;28;20206;-62
2023/10/21 03:08:01;;;;;;;0.50;0.50;;;;;12.80;93777.00;;;;5062156;28;20196;-62
2023/10/21 03:10:28;;;;;;;0.87;0.87;;;;;12.80;93784.00;;;;5062246;28;20216;-62
2023/10/21 03:12:56;;;;;;;0.70;0.70;;;;;12.90;93781.00;;;;5061341;28;20223;-62
2023/10/21 03:15:23;;;;;;;0.60;0.60;;;;;12.90;93782.00;;;;5044739;28;20575;-63
2023/10/21 03:17:50;;;;;;;0.43;0.43;;;;;12.90;93784.00;;;;5043974;28;20294;-62
2023/10/21 03:20:18;;;;;;;0.60;0.60;;;;;12.90;93786.00;;;;5061942;28;20194;-62
2023/10/21 03:22:45;;;;;;;0.50;0.50;;;;;12.90;93783.00;;;;5062010;28;20211;-62
2023/10/21 03:25:14;;;;;;;0.57;0.57;;;;;13.10;93785.00;;;;5044085;28;20216;-62
2023/10/21 03:27:42;;;;;;;0.50;0.50;;;;;12.90;93789.00;;;;5062395;28;20200;-61
2023/10/21 03:30:10;;;;;;;0.40;0.40;;;;;12.90;93792.00;;;;5062203;28;20208;-62
2023/10/21 03:32:38;;;;;;;0.50;0.50;;;;;12.70;93792.00;;;;5064916;28;20307;-62
2023/10/21 03:35:06;;;;;;;0.50;0.50;;;;;12.60;93796.00;;;;5047022;28;20196;-62
2023/10/21 03:37:34;;;;;;;0.40;0.40;;;;;12.40;93804.00;;;;5064217;28;20223;-62
2023/10/21 03:40:05;;;;;;;0.60;0.60;;;;;12.50;93818.00;;;;5064994;28;20184;-62
2023/10/21 03:42:34;;;;;;;0.60;0.60;;;;;12.30;93808.00;;;;5064231;28;20242;-62
2023/10/21 03:45:01;;;;;;;0.60;0.60;;;;;12.30;93810.00;;;;5045504;28;20219;-62
2023/10/21 03:47:29;;;;;;;1.37;1.27;;;;;12.30;93820.00;;;;5064213;28;20207;-62
2023/10/21 03:49:56;;;;;;;0.70;0.70;;;;;12.20;93830.00;;;;5064027;28;20215;-62
2023/10/21 03:52:24;;;;;;;0.60;0.60;;;;;12.30;93841.00;;;;5045377;28;20251;-62
2023/10/21 03:54:52;;;;;;;0.60;0.60;;;;;12.20;93842.00;;;;5063960;28;20200;-62
2023/10/21 03:57:19;;;;;;;1.73;0.87;;;;;12.20;93847.00;;;;5044882;28;20227;-62
2023/10/21 03:59:48;;;;;;;0.50;0.50;;;;;12.20;93851.00;;;;5061444;28;20549;-63
2023/10/21 04:02:15;;;;;;;0.60;0.60;;;;;12.10;93855.00;;;;5060956;28;20344;-62
2023/10/21 04:04:43;;;;;;;0.60;0.60;;;;;12.20;93872.00;;;;5042783;28;20211;-62
2023/10/21 04:07:10;;;;;;;0.60;0.60;;;;;12.30;93858.00;;;;5061537;28;20188;-62
2023/10/21 04:09:37;;;;;;;0.60;0.60;;;;;12.40;93863.00;;;;5061782;28;20196;-62
2023/10/21 04:12:05;;;;;;;0.53;0.53;;;;;12.30;93880.00;;;;5062145;28;20227;-62
2023/10/21 04:14:33;;;;;;;0.50;0.50;;;;;12.20;93886.00;;;;5061171;28;20263;-62
2023/10/21 04:17:01;;;;;;;0.60;0.60;;;;;12.20;93888.00;;;;5062603;28;20192;-62
2023/10/21 04:19:29;;;;;;;0.50;0.50;;;;;12.20;93901.00;;;;5061473;28;20208;-61
2023/10/21 04:21:56;;;;;;;0.60;0.60;;;;;12.20;93894.00;;;;5060723;28;20207;-62
2023/10/21 04:24:24;;;;;;;0.60;0.60;;;;;12.30;93904.00;;;;5042676;28;20200;-62
2023/10/21 04:26:51;;;;;;;0.40;0.40;;;;;12.40;93911.00;;;;5059727;28;20203;-62
2023/10/21 04:29:18;;;;;;;0.60;0.60;;;;;12.40;93909.00;;;;5059446;28;20192;-62
2023/10/21 04:31:46;;;;;;;21.07;1.00;;;;;12.50;93916.00;;;;5060059;28;20216;-62
2023/10/21 04:34:15;;;;;;;0.47;0.47;;;;;12.50;93915.00;;;;5060432;28;20202;-62
2023/10/21 04:36:42;;;;;;;0.50;0.50;;;;;12.50;93915.00;;;;5041957;28;20215;-62
2023/10/21 04:39:09;;;;;;;0.60;0.60;;;;;12.50;93923.00;;;;5060328;28;20550;-62
2023/10/21 04:41:37;;;;;;;0.60;0.60;;;;;12.50;93924.00;;;;5059381;28;20219;-62
2023/10/21 04:44:04;;;;;;;0.60;0.60;;;;;12.50;93920.00;;;;5059737;28;20683;-62
2023/10/21 04:46:32;;;;;;;0.50;0.50;;;;;12.50;93931.00;;;;5042405;28;20196;-62
2023/10/21 04:48:59;;;;;;;0.60;0.60;;;;;12.60;93932.00;;;;5059673;28;20188;-62
2023/10/21 04:51:28;;;;;;;0.50;0.50;;;;;12.80;93939.00;;;;5060130;28;20518;-62
2023/10/21 04:53:55;;;;;;;0.50;0.50;;;;;12.90;93935.00;;;;5042524;28;20200;-61
2023/10/21 04:56:24;;;;;;;0.50;0.50;;;;;12.80;93955.00;;;;5060047;28;20599;-61
2023/10/21 04:58:51;;;;;;;0.60;0.60;;;;;12.70;93951.00;;;;5043149;28;20196;-61
2023/10/21 05:01:19;;;;;;;0.50;0.50;;;;;12.70;93948.00;;;;5060936;28;20204;-62
2023/10/21 05:03:46;;;;;;;0.50;0.50;;;;;12.80;93949.00;;;;5041852;28;20196;-62
2023/10/21 05:06:14;;;;;;;0.50;0.50;;;;;12.90;93957.00;;;;5061454;28;20184;-62
2023/10/21 05:08:42;;;;;;;0.50;0.50;;;;;12.90;93965.00;;;;5060292;28;20196;-62
2023/10/21 05:11:10;;;;;;;0.50;0.50;;;;;12.90;93969.00;;;;5062425;28;20215;-62
2023/10/21 05:13:37;;;;;;;0.60;0.60;;;;;12.70;93967.00;;;;5064990;28;20226;-62
2023/10/21 05:16:05;;;;;;;0.57;0.57;;;;;12.60;93968.00;;;;5065708;28;20188;-62
2023/10/21 05:18:32;;;;;;;0.50;0.50;;;;;12.50;93972.00;;;;5063741;28;20203;-62
2023/10/21 05:21:00;;;;;;;0.60;0.60;;;;;12.50;93974.00;;;;5065730;28;20195;-62
2023/10/21 05:23:27;;;;;;;0.40;0.40;;;;;12.50;93976.00;;;;5046327;28;20200;-62
2023/10/21 05:25:56;;;;;;;0.50;0.50;;;;;12.60;93965.00;;;;5045981;28;20200;-61
2023/10/21 05:28:23;;;;;;;0.60;0.60;;;;;12.60;93985.00;;;;5064266;28;20200;-62
2023/10/21 05:30:51;;;;;;;0.57;0.57;;;;;12.60;93982.00;;;;5060934;28;20291;-63
2023/10/21 05:33:18;;;;;;;0.60;0.60;;;;;12.60;93997.00;;;;5060050;28;20188;-63
2023/10/21 05:35:47;;;;;;;0.50;0.50;;;;;12.50;93994.00;;;;5059355;28;20580;-62
2023/10/21 05:38:14;;;;;;;0.53;0.53;;;;;12.50;94003.00;;;;5058907;28;20212;-62
2023/10/21 05:40:43;;;;;;;0.60;0.60;;;;;12.60;94011.00;;;;5041608;28;20200;-63
2023/10/21 05:43:12;;;;;;;0.50;0.50;;;;;12.50;94025.00;;;;5059484;28;20220;-62
2023/10/21 05:45:39;;;;;;;0.73;0.73;;;;;12.50;94039.00;;;;5059636;28;20200;-62
2023/10/21 05:48:07;;;;;;;0.50;0.50;;;;;12.50;94041.00;;;;5058922;28;20192;-62
2023/10/21 05:50:34;;;;;;;4.23;0.77;;;;;12.50;94053.00;;;;5059406;28;20289;-62
2023/10/21 05:53:03;;;;;;;0.50;0.50;;;;;12.60;94048.00;;;;5058407;28;20212;-62
2023/10/21 05:55:31;;;;;;;0.83;0.83;;;;;12.50;94055.00;;;;5057848;28;20198;-62
2023/10/21 05:57:58;;;;;;;0.67;0.67;;;;;12.70;94062.00;;;;5057502;28;20302;-63
2023/10/21 06:00:28;;;;;;;0.53;0.53;;;;;12.80;94067.00;;;;5059661;28;20192;-62
2023/10/21 06:02:55;;;;;;;0.50;0.50;;;;;12.70;94071.00;;;;5058580;28;20231;-62
2023/10/21 06:05:23;;;;;;;0.63;0.63;;;;;12.90;94072.00;;;;5059279;28;20574;-62
2023/10/21 06:07:50;;;;;;;0.50;0.50;;;;;13.00;94081.00;;;;5040973;28;20200;-62
2023/10/21 06:10:18;;;;;;;0.40;0.40;;;;;12.90;94100.00;;;;5058822;28;20200;-62
2023/10/21 06:12:45;;;;;;;0.50;0.50;;;;;12.90;94093.00;;;;5040525;28;20224;-62
2023/10/21 06:15:13;;;;;;;0.60;0.60;;;;;12.90;94090.00;;;;5058360;28;20196;-62
2023/10/21 06:17:42;;;;;;;0.53;0.53;;;;;13.00;94106.00;;;;5058849;28;20192;-62
2023/10/21 06:20:10;;;;;;;0.60;0.60;;;;;12.90;94116.00;;;;5058462;28;20199;-61
2023/10/21 06:22:38;;;;;;;0.50;0.50;;;;;13.00;94116.00;;;;5040968;28;20212;-63
2023/10/21 06:25:06;;;;;;;0.70;0.70;;;;;13.10;94119.00;;;;5040832;28;20207;-62
2023/10/21 06:27:33;;;;;;;0.40;0.40;;;;;13.10;94125.00;;;;5058339;28;20707;-62
2023/10/21 06:30:01;;;;;;;0.60;0.60;;;;;13.10;94134.00;;;;5058043;28;20192;-62
2023/10/21 06:32:28;;;;;;;0.50;0.50;;;;;13.10;94140.00;;;;5058344;28;20288;-63
2023/10/21 06:34:57;;;;;;;0.60;0.60;;;;;13.30;94147.00;;;;5058186;28;20516;-60
2023/10/21 06:37:25;;;;;;;0.50;0.50;;;;;13.20;94160.00;;;;5057339;28;20206;-60
2023/10/21 06:39:52;;;;;;;0.50;0.50;;;;;13.20;94152.00;;;;5057662;28;20198;-60
2023/10/21 06:42:19;;;;;;;0.60;0.60;;;;;13.20;94150.00;;;;5058278;28;20211;-60
2023/10/21 06:44:47;;;;;;;0.60;0.60;;;;;13.30;94149.00;;;;5057859;28;20207;-61
2023/10/21 06:47:14;;;;;;;0.50;0.50;;;;;13.40;94159.00;;;;5058156;28;20291;-61
2023/10/21 06:49:42;;;;;;;0.67;0.67;;;;;13.60;94167.00;;;;5058088;28;20203;-61
2023/10/21 06:52:10;;;;;;;0.60;0.60;;;;;13.30;94168.00;;;;5058258;28;20227;-62
2023/10/21 06:54:38;;;;;;;0.50;0.50;;;;;13.60;94164.00;;;;5058481;28;20188;-62
2023/10/21 06:57:06;;;;;;;0.50;0.50;;;;;13.40;94154.00;;;;5058664;28;20548;-62
2023/10/21 06:59:34;;;;;;;0.50;0.50;;;;;13.30;94167.00;;;;5058711;28;20192;-62
2023/10/21 07:02:01;;;;;;;0.50;0.50;;;;;13.30;94179.00;;;;5055212;28;20212;-61
2023/10/21 07:04:30;;;;;;;0.60;0.60;;;;;13.20;94192.00;;;;5056945;28;20188;-61
2023/10/21 07:06:58;;;;;;;0.50;0.50;;;;;13.20;94192.00;;;;5057223;28;20259;-62
2023/10/21 07:09:27;;;;;;;0.60;0.60;;;;;13.30;94203.00;;;;5058410;28;20275;-62
2023/10/21 07:11:54;;;;;;;0.50;0.50;;;;;13.20;94197.00;;;;5057263;28;20224;-61
2023/10/21 07:14:22;;;;;;;0.50;0.50;;;;;13.10;94212.00;;;;5039818;28;20218;-62
2023/10/21 07:16:49;;;;;;;0.50;0.50;;;;;13.20;94197.00;;;;5058236;28;20198;-62
2023/10/21 07:19:17;;;;;;;0.50;0.50;;;;;13.30;94219.00;;;;5057788;28;20267;-61
2023/10/21 07:21:44;;;;;;;0.90;0.90;;;;;13.20;94201.00;;;;5057431;28;20212;-62
2023/10/21 07:24:12;;;;;;;0.50;0.50;;;;;13.40;94212.00;;;;5059122;28;20270;-61
2023/10/21 07:26:41;;;;;;;0.50;0.50;;;;;13.50;94203.00;;;;5042561;28;20204;-61
2023/10/21 07:29:08;;;;;;;0.50;0.50;;;;;13.30;94214.00;;;;5057660;28;20624;-61
2023/10/21 07:31:36;;;;;;;0.50;0.50;;;;;13.40;94214.00;;;;5040964;28;20223;-62
2023/10/21 07:34:04;;;;;;;0.70;0.70;;;;;13.30;94231.00;;;;5057676;28;20199;-61
2023/10/21 07:36:31;;;;;;;0.53;0.53;;;;;13.60;94228.00;;;;5058159;28;20204;-62
2023/10/21 07:38:59;;;;;;;0.60;0.60;;;;;13.60;94220.00;;;;5058459;28;20208;-62
2023/10/21 07:41:27;;;;;;;0.57;0.57;;;;;13.70;94233.00;;;;5057596;28;20208;-62
2023/10/21 07:43:55;;;;;;;0.60;0.60;;;;;13.90;94250.00;;;;5058097;28;20673;-62
2023/10/21 07:46:23;;;;;;;0.40;0.40;;;;;13.80;94241.00;;;;5057886;28;20192;-62
2023/10/21 07:48:51;;;;;;;0.60;0.60;;;;;13.50;94256.00;;;;5039653;28;20246;-62
2023/10/21 07:51:19;;;;;;;0.80;0.80;;;;;13.50;94257.00;;;;5057182;28;20222;-61
2023/10/21 07:53:46;;;;;;;0.60;0.60;;;13.60;74.20;13.30;94259.00;;;;5057122;28;20188;-62
2023/10/21 07:56:14;;;;;;;0.60;0.60;;;;;13.30;94284.00;;;;5056778;28;20193;-62
2023/10/21 07:58:42;;;;;;;0.50;0.50;;;;;13.40;94290.00;;;;5057107;28;20562;-62
2023/10/21 08:01:11;;;;;;;0.60;0.60;;;;;13.40;94285.00;;;;5057012;28;20192;-62
2023/10/21 08:03:38;;;;;;;0.50;0.50;;;;;13.80;94297.00;;;;5038702;28;20347;-62
2023/10/21 08:06:07;;;;;;;0.50;0.50;;;;;13.60;94297.00;;;;5056669;28;20204;-62
2023/10/21 08:08:34;;;;;;;1.17;1.17;;;;;13.80;94299.00;;;;5057296;28;20216;-62
2023/10/21 08:11:03;;;;;;;0.50;0.50;;;;;13.80;94297.00;;;;5056497;28;20196;-62
2023/10/21 08:13:30;;;;;;;0.70;0.70;;;;;14.00;94307.00;;;;5038977;28;20235;-62
2023/10/21 08:15:59;;;;;;;0.60;0.60;;;;;13.70;94312.00;;;;5056364;28;20204;-62
2023/10/21 08:18:28;;;;;;;0.60;0.60;;;;;13.80;94313.00;;;;5058654;28;20196;-62
2023/10/21 08:20:55;;;;;;;0.93;0.90;;;;;13.90;94325.00;;;;5059824;28;20655;-62
2023/10/21 08:23:22;;;;;;;0.50;0.50;;;;;13.90;94327.00;;;;5041922;28;20200;-62
2023/10/21 08:25:50;;;;;;;0.50;0.50;;;;;13.80;94337.00;;;;5042014;28;20261;-62
2023/10/21 08:28:17;;;;;;;0.50;0.50;;;;;13.70;94336.00;;;;5060764;28;20227;-62
2023/10/21 08:30:45;;;;;;;0.57;0.57;;;;;14.00;94329.00;;;;5060352;28;20262;-62
2023/10/21 08:33:12;;;;;;;0.60;0.60;;;;;13.80;94316.00;;;;5060664;28;20295;-62
2023/10/21 08:35:41;;;;;;;0.50;0.50;;;;;13.80;94323.00;;;;5060529;28;20195;-62
2023/10/21 08:38:08;;;;;;;0.63;0.63;;;;;14.10;94325.00;;;;5061134;28;20195;-62
2023/10/21 08:40:38;;;;;;;0.80;0.80;;;;;14.20;94316.00;;;;5061314;28;20216;-62
2023/10/21 08:43:07;;;;;;;0.70;0.70;;;;;13.90;94346.00;;;;5043091;28;20211;-61
2023/10/21 08:45:36;;;;;;;0.50;0.50;;;;;14.10;94338.00;;;;5043034;28;20287;-61
2023/10/21 08:48:04;;;;;;;16.70;1.03;;;;;14.30;94339.00;;;;5060616;28;20263;-62
2023/10/21 08:50:35;;;;;;;0.60;0.60;;;;;14.40;94358.00;;;;5059877;28;20198;-62
2023/10/21 08:53:06;;;;;;;0.50;0.50;;;;;14.40;94348.00;;;;5060713;28;20222;-62
2023/10/21 08:55:36;;;;;;;0.50;0.50;;;;;14.60;94355.00;;;;5060805;28;20177;-62
2023/10/21 08:58:06;;;;;;;0.50;0.50;;;;;14.40;94372.00;;;;5060496;28;20278;-62
2023/10/21 09:00:33;;;;;;;0.50;0.50;;;;;14.50;94385.00;;;;5060667;28;20188;-62
2023/10/21 09:03:03;;;;;;;0.60;0.60;;;;;14.60;94389.00;;;;5059816;28;20211;-62
2023/10/21 09:05:31;;;;;;;0.57;0.57;;;;;14.60;94397.00;;;;5060871;28;20196;-62
2023/10/21 09:07:59;;;;;;;0.80;0.80;;;;;14.70;94397.00;;;;5060698;28;20248;-62
2023/10/21 09:10:28;;;;;;;0.40;0.40;;;;;14.70;94392.00;;;;5060383;28;20189;-62
2023/10/21 09:12:55;;;;;;;0.40;0.40;;;;;14.90;94394.00;;;;5042242;28;20298;-62
2023/10/21 09:15:36;;;;;;;0.50;0.50;;;;;14.80;94396.00;;;;5042190;28;20196;-62
2023/10/21 09:18:11;;;;;;;0.50;0.50;;;;;14.90;94398.00;;;;5060073;28;20189;-62
2023/10/21 09:20:39;;;;;;;0.60;0.60;;;;;14.80;94406.00;;;;5060190;28;20186;-62
2023/10/21 09:23:08;;;;;;;0.50;0.50;;;;;14.80;94392.00;;;;5059586;28;20204;-62
2023/10/21 09:25:38;;;;;;;0.50;0.50;;;;;14.80;94407.00;;;;5060173;28;20263;-62
2023/10/21 09:28:06;;;;;;;0.60;0.60;;;;;14.90;94387.00;;;;5059842;28;20220;-62
2023/10/21 09:30:33;;;;;;;0.57;0.57;;;;;14.70;94396.00;;;;5059898;28;20199;-62
2023/10/21 09:33:07;;;;;;;9.03;0.80;;;;;14.50;94392.00;;;;5059233;28;20266;-62
2023/10/21 09:35:36;;;;;;;0.50;0.50;;;;;14.90;94394.00;;;;5057991;28;20196;-62
2023/10/21 09:38:16;;;;;;;0.50;0.50;;;;;15.10;94409.00;;;;5057063;28;20207;-61
2023/10/21 09:40:46;;;;;;;0.87;0.87;;;;;14.50;94421.00;;;;5058546;28;20722;-62
2023/10/21 09:43:14;;;;;;;0.50;0.50;;;;;14.50;94422.00;;;;5059284;28;20216;-61
2023/10/21 09:45:44;;;;;;;3.40;0.90;;;;;14.60;94417.00;;;;5059221;28;20196;-63
2023/10/21 09:48:12;;;;;;;0.47;0.47;;;;;14.20;94418.00;;;;5059449;28;20180;-63
2023/10/21 09:50:45;;;;;;;0.60;0.60;;;;;14.40;94403.00;;;;5059177;28;20203;-63
2023/10/21 09:53:16;;;;;;;0.40;0.40;;;;;14.70;94408.00;;;;5058767;28;20234;-61
2023/10/21 09:55:45;;;;;;;0.60;0.60;;;;;14.80;94405.00;;;;5058583;28;20667;-62
2023/10/21 09:58:14;;;;;;;0.50;0.50;;;;;14.90;94408.00;;;;5059747;28;20200;-62
2023/10/21 10:00:41;;;;;;;0.50;0.50;;;;;15.10;94413.00;;;;5059663;28;20199;-62
2023/10/21 10:03:10;;;;;;;0.60;0.60;;;;;15.50;94398.00;;;;5041067;28;20212;-62
2023/10/21 10:05:38;;;;;;;0.50;0.50;;;;;15.70;94409.00;;;;5058878;28;20192;-62
2023/10/21 10:08:06;;;;;;;0.50;0.50;;;;;15.80;94410.00;;;;5059509;28;20256;-62
2023/10/21 10:10:38;;;;;;;0.60;0.60;;;;;15.60;94407.00;;;;5059015;28;20184;-62
2023/10/21 10:13:09;;;;;;;0.50;0.50;;;;;15.30;94419.00;;;;5058600;28;20298;-62
2023/10/21 10:15:38;;;;;;;0.50;0.50;;;;;15.40;94426.00;;;;5058858;28;20250;-62
2023/10/21 10:18:06;;;;;;;0.70;0.70;;;;;15.60;94421.00;;;;5058835;28;20200;-62
2023/10/21 10:20:35;;;;;;;0.50;0.50;;;;;15.70;94432.00;;;;5040794;28;20289;-62
2023/10/21 10:23:07;;;;;;;0.63;0.63;;;;;15.60;94422.00;;;;5061858;28;20227;-62
2023/10/21 10:25:36;;;;;;;0.50;0.50;;;;;15.20;94437.00;;;;5063218;28;20230;-62
2023/10/21 10:28:09;;;;;;;0.60;0.60;;;;;15.90;94440.00;;;;5044198;28;20207;-62
2023/10/21 10:30:38;;;;;;;0.50;0.50;;;;;15.70;94441.00;;;;5059482;28;20184;-62
2023/10/21 10:33:07;;;;;;;0.70;0.70;;;;;15.80;94429.00;;;;5059965;28;20273;-62
2023/10/21 10:35:37;;;;;;;0.50;0.50;;;;;15.50;94449.00;;;;5059202;28;20223;-62
2023/10/21 10:38:17;;;;;;;0.50;0.50;;;;;15.50;94451.00;;;;5058780;28;20282;-62
2023/10/21 10:40:45;;;;;;;0.70;0.70;;;;;15.60;94444.00;;;;5059086;28;20184;-62
2023/10/21 10:43:16;;;;;;;0.63;0.63;;;;;16.60;94438.00;;;;5057999;28;20718;-62
2023/10/21 10:45:44;;;;;;;0.60;0.60;;;;;16.10;94453.00;;;;5058966;28;20180;-63
2023/10/21 10:48:12;;;;;;;0.60;0.60;;;;;15.80;94442.00;;;;5057886;28;20200;-62
2023/10/21 10:50:40;;;;;;;0.53;0.53;;;;;15.70;94424.00;;;;5057761;28;20218;-62
2023/10/21 10:53:20;;;;;;;0.90;0.90;;;;;15.60;94441.00;;;;5056660;28;20215;-61
2023/10/21 10:55:49;;;;;;;0.50;0.50;;;;;15.50;94446.00;;;;5054521;28;20249;-62
2023/10/21 10:58:19;;;;;;;0.70;0.70;;;;;15.90;94437.00;;;;5055301;28;20192;-62
2023/10/21 11:00:47;;;;;;;0.40;0.40;;;;;16.30;94441.00;;;;5038272;28;20192;-62
2023/10/21 11:03:24;;;;;;;0.50;0.50;;;;;16.70;94434.00;;;;5057132;28;20207;-62
2023/10/21 11:05:52;;;;;;;0.93;0.83;;;;;16.50;94447.00;;;;5056639;28;20226;-61
2023/10/21 11:08:20;;;;;;;0.50;0.50;;;;;16.10;94455.00;;;;5057212;28;20636;-62
2023/10/21 11:10:47;;;;;;;0.80;0.80;;;;;15.80;94449.00;;;;5056016;28;20215;-62
2023/10/21 11:13:17;;;;;;;2.63;0.80;;;;;16.10;94444.00;;;;5055878;28;20262;-62
2023/10/21 11:15:48;;;;;;;0.40;0.40;;;;;16.10;94457.00;;;;5056643;28;20664;-61
2023/10/21 11:18:16;;;;;;;0.50;0.50;;;;;15.80;94460.00;;;;5055073;28;20537;-62
2023/10/21 11:20:47;;;;;;;0.50;0.50;;;;;15.70;94447.00;;;;5054864;28;20199;-62
2023/10/21 11:23:18;;;;;;;0.60;0.60;;;;;15.90;94433.00;;;;5037515;28;20188;-62
2023/10/21 11:25:48;;;;;;;0.50;0.50;;;;;15.90;94438.00;;;;5054693;28;20318;-62
2023/10/21 11:28:17;;;;;;;0.60;0.60;;;;;16.60;94444.00;;;;5055693;28;20628;-62
2023/10/21 11:30:46;;;;;;;0.87;0.87;;;;;17.40;94433.00;;;;5037068;28;20220;-63
2023/10/21 11:33:13;;;;;;;1.40;1.10;;;;;17.80;94450.00;;;;5054832;28;20285;-63
2023/10/21 11:35:43;;;;;;;0.50;0.50;;;;;16.60;94455.00;;;;5054799;28;20555;-62
2023/10/21 11:38:13;;;;;;;0.50;0.50;;;;;16.00;94472.00;;;;5055346;28;20200;-63
2023/10/21 11:40:41;;;;;;;0.80;0.80;;;;;16.10;94471.00;;;;5054762;28;20192;-62
2023/10/21 11:43:11;;;;;;;0.50;0.50;;;;;16.10;94461.00;;;;5036892;28;20212;-63
2023/10/21 11:45:41;;;;;;;1.90;0.70;;;;;16.30;94442.00;;;;5054873;28;20210;-62
2023/10/21 11:48:09;;;;;;;0.60;0.60;;;;;16.40;94464.00;;;;5036696;28;20200;-62
2023/10/21 11:50:38;;;;;;;0.50;0.50;;;;;16.60;94455.00;;;;5054863;28;20185;-62
2023/10/21 11:53:06;;;;;;;0.50;0.50;;;;;16.10;94478.00;;;;5056708;28;20219;-62
2023/10/21 12:26:27;;;;;;;0.50;0.50;;;;;16.50;94484.00;;;;5057869;28;20632;-62
2023/10/21 12:31:57;;;;;;;0.60;0.60;;;;;15.70;94488.00;;;;5039004;28;20228;-61
2023/10/21 12:34:51;;;;;;;0.60;0.60;;;;;15.90;94489.00;;;;5059646;28;20218;-61
2023/10/21 12:37:30;;;;;;;0.60;0.60;;;;;16.20;94477.00;;;;5059132;28;20278;-62
2023/10/21 12:39:57;;;;;;;0.40;0.40;;;;;16.30;94475.00;;;;5059256;28;20184;-62
2023/10/21 12:42:28;;;;;;;0.50;0.50;;;;;16.10;94500.00;;;;5060217;28;20640;-62
2023/10/21 12:44:56;;;;;;;1.07;1.03;;;;;16.40;94452.00;;;;5060580;28;20628;-62
2023/10/21 12:47:25;;;;;;;0.50;0.50;;;;;17.40;94463.00;;;;5060502;28;20267;-62
2023/10/21 12:49:56;;;;;;;0.70;0.70;;;;;18.40;94474.00;;;;5059779;28;20204;-60
2023/10/21 12:52:23;;;;;;;0.60;0.60;;;;;19.70;94446.00;;;;5058019;28;20273;-62
2023/10/21 12:54:51;;;;;;;0.53;0.53;;;;;17.80;94493.00;;;;5058897;28;20196;-62